Terminal Aerodrome Forecast
Issued by NWS

Home | Current Version | Previous Version | Text Only | Print | Product List | Glossary On
Versions: 1 2 3 4 5 6 7 8 9 10 11 12 13 14 15 16 17
000
FTUS44 KTSA 280500
TAFXNA
TAF
KXNA 280521Z 2806/0106 VRB05KT P6SM OVC050
      TEMPO 2806/2809 4SM -SN OVC035
     FM281400 11004KT 4SM BR OVC025
      TEMPO 2814/2818 4SM -SN OVC010
     FM281800 13005KT 1SM -SN BR OVC010=

USA.gov is the U.S. government's official web portal to all federal, state and local government web resources and services.